sensor_id;sensor_type;location;lat;lon;timestamp;P1;durP1;ratioP1;P2;durP2;ratioP2
11490;SDS011;5802;52.832;4.758;2023-04-21T00:01:43;2.33;;;1.73;;
11490;SDS011;5802;52.832;4.758;2023-04-21T00:04:10;2.47;;;1.50;;
11490;SDS011;5802;52.832;4.758;2023-04-21T00:06:38;1.60;;;1.50;;
11490;SDS011;5802;52.832;4.758;2023-04-21T00:09:05;3.67;;;1.73;;
11490;SDS011;5802;52.832;4.758;2023-04-21T00:11:33;2.03;;;1.67;;
11490;SDS011;5802;52.832;4.758;2023-04-21T00:14:01;2.22;;;1.60;;
11490;SDS011;5802;52.832;4.758;2023-04-21T00:16:28;1.98;;;1.73;;
11490;SDS011;5802;52.832;4.758;2023-04-21T00:18:55;1.75;;;1.40;;
11490;SDS011;5802;52.832;4.758;2023-04-21T00:21:22;1.90;;;1.55;;
11490;SDS011;5802;52.832;4.758;2023-04-21T00:23:49;2.08;;;1.58;;
11490;SDS011;5802;52.832;4.758;2023-04-21T00:26:15;2.80;;;2.08;;
11490;SDS011;5802;52.832;4.758;2023-04-21T00:28:43;3.38;;;1.60;;
11490;SDS011;5802;52.832;4.758;2023-04-21T00:31:10;2.13;;;1.75;;
11490;SDS011;5802;52.832;4.758;2023-04-21T00:33:37;1.90;;;1.70;;
11490;SDS011;5802;52.832;4.758;2023-04-21T00:36:04;2.22;;;1.65;;
11490;SDS011;5802;52.832;4.758;2023-04-21T00:38:30;2.60;;;1.77;;
11490;SDS011;5802;52.832;4.758;2023-04-21T00:40:57;3.67;;;1.70;;
11490;SDS011;5802;52.832;4.758;2023-04-21T00:43:24;3.33;;;1.70;;
11490;SDS011;5802;52.832;4.758;2023-04-21T00:45:52;1.60;;;1.48;;
11490;SDS011;5802;52.832;4.758;2023-04-21T00:48:18;1.60;;;1.45;;
11490;SDS011;5802;52.832;4.758;2023-04-21T00:50:45;2.70;;;1.50;;
11490;SDS011;5802;52.832;4.758;2023-04-21T00:53:12;2.45;;;1.63;;
11490;SDS011;5802;52.832;4.758;2023-04-21T00:55:40;2.20;;;1.77;;
11490;SDS011;5802;52.832;4.758;2023-04-21T00:58:07;2.00;;;1.80;;
11490;SDS011;5802;52.832;4.758;2023-04-21T01:00:33;2.13;;;1.50;;
11490;SDS011;5802;52.832;4.758;2023-04-21T01:03:01;2.60;;;1.77;;
11490;SDS011;5802;52.832;4.758;2023-04-21T01:05:30;2.75;;;1.90;;
11490;SDS011;5802;52.832;4.758;2023-04-21T01:07:57;2.10;;;1.73;;
11490;SDS011;5802;52.832;4.758;2023-04-21T01:10:24;1.85;;;1.65;;
11490;SDS011;5802;52.832;4.758;2023-04-21T01:12:50;1.83;;;1.63;;
11490;SDS011;5802;52.832;4.758;2023-04-21T01:15:17;2.13;;;1.60;;
11490;SDS011;5802;52.832;4.758;2023-04-21T01:17:44;2.13;;;1.73;;
11490;SDS011;5802;52.832;4.758;2023-04-21T01:20:13;2.30;;;1.52;;
11490;SDS011;5802;52.832;4.758;2023-04-21T01:22:41;2.00;;;1.60;;
11490;SDS011;5802;52.832;4.758;2023-04-21T01:25:09;2.33;;;1.88;;
11490;SDS011;5802;52.832;4.758;2023-04-21T01:27:36;2.05;;;1.70;;
11490;SDS011;5802;52.832;4.758;2023-04-21T01:30:03;2.25;;;1.55;;
11490;SDS011;5802;52.832;4.758;2023-04-21T01:32:31;1.85;;;1.50;;
11490;SDS011;5802;52.832;4.758;2023-04-21T01:34:58;2.88;;;1.73;;
11490;SDS011;5802;52.832;4.758;2023-04-21T01:37:25;2.15;;;1.80;;
11490;SDS011;5802;52.832;4.758;2023-04-21T01:39:56;3.40;;;2.00;;
11490;SDS011;5802;52.832;4.758;2023-04-21T01:42:25;3.28;;;1.98;;
11490;SDS011;5802;52.832;4.758;2023-04-21T01:44:54;7.20;;;1.80;;
11490;SDS011;5802;52.832;4.758;2023-04-21T01:47:20;1.83;;;1.63;;
11490;SDS011;5802;52.832;4.758;2023-04-21T01:49:49;2.65;;;1.85;;
11490;SDS011;5802;52.832;4.758;2023-04-21T01:52:15;1.65;;;1.42;;
11490;SDS011;5802;52.832;4.758;2023-04-21T01:54:42;3.78;;;1.80;;
11490;SDS011;5802;52.832;4.758;2023-04-21T01:57:10;2.30;;;1.60;;
11490;SDS011;5802;52.832;4.758;2023-04-21T01:59:37;1.60;;;1.50;;
11490;SDS011;5802;52.832;4.758;2023-04-21T02:02:04;2.88;;;1.88;;
11490;SDS011;5802;52.832;4.758;2023-04-21T02:04:30;2.28;;;1.75;;
11490;SDS011;5802;52.832;4.758;2023-04-21T02:06:58;2.00;;;1.73;;
11490;SDS011;5802;52.832;4.758;2023-04-21T02:09:24;2.60;;;1.90;;
11490;SDS011;5802;52.832;4.758;2023-04-21T02:11:51;2.95;;;1.85;;
11490;SDS011;5802;52.832;4.758;2023-04-21T02:14:19;2.00;;;1.55;;
11490;SDS011;5802;52.832;4.758;2023-04-21T02:16:46;1.98;;;1.77;;
11490;SDS011;5802;52.832;4.758;2023-04-21T02:19:13;2.33;;;1.80;;
11490;SDS011;5802;52.832;4.758;2023-04-21T02:21:39;2.65;;;1.73;;
11490;SDS011;5802;52.832;4.758;2023-04-21T02:24:06;2.47;;;1.88;;
11490;SDS011;5802;52.832;4.758;2023-04-21T02:26:33;2.88;;;1.77;;
11490;SDS011;5802;52.832;4.758;2023-04-21T02:28:59;2.65;;;1.67;;
11490;SDS011;5802;52.832;4.758;2023-04-21T02:31:28;2.35;;;1.70;;
11490;SDS011;5802;52.832;4.758;2023-04-21T02:33:55;1.98;;;1.73;;
11490;SDS011;5802;52.832;4.758;2023-04-21T02:36:21;2.00;;;1.55;;
11490;SDS011;5802;52.832;4.758;2023-04-21T02:38:48;2.10;;;1.80;;
11490;SDS011;5802;52.832;4.758;2023-04-21T02:41:15;2.10;;;1.85;;
11490;SDS011;5802;52.832;4.758;2023-04-21T02:43:41;2.50;;;1.80;;
11490;SDS011;5802;52.832;4.758;2023-04-21T02:46:08;3.90;;;1.98;;
11490;SDS011;5802;52.832;4.758;2023-04-21T02:48:38;3.75;;;2.17;;
11490;SDS011;5802;52.832;4.758;2023-04-21T02:51:09;2.22;;;1.90;;
11490;SDS011;5802;52.832;4.758;2023-04-21T02:53:37;3.25;;;2.00;;
11490;SDS011;5802;52.832;4.758;2023-04-21T02:56:04;2.47;;;1.90;;
11490;SDS011;5802;52.832;4.758;2023-04-21T02:58:32;2.13;;;1.83;;
11490;SDS011;5802;52.832;4.758;2023-04-21T03:00:59;3.45;;;2.22;;
11490;SDS011;5802;52.832;4.758;2023-04-21T03:03:26;2.17;;;1.98;;
11490;SDS011;5802;52.832;4.758;2023-04-21T03:05:56;2.20;;;2.00;;
11490;SDS011;5802;52.832;4.758;2023-04-21T03:08:23;2.53;;;1.88;;
11490;SDS011;5802;52.832;4.758;2023-04-21T03:10:50;2.13;;;1.92;;
11490;SDS011;5802;52.832;4.758;2023-04-21T03:13:16;2.17;;;1.98;;
11490;SDS011;5802;52.832;4.758;2023-04-21T03:15:43;5.80;;;2.22;;
11490;SDS011;5802;52.832;4.758;2023-04-21T03:18:10;2.50;;;2.13;;
11490;SDS011;5802;52.832;4.758;2023-04-21T03:20:37;2.20;;;2.00;;
11490;SDS011;5802;52.832;4.758;2023-04-21T03:23:05;2.95;;;2.35;;
11490;SDS011;5802;52.832;4.758;2023-04-21T03:25:32;2.88;;;2.28;;
11490;SDS011;5802;52.832;4.758;2023-04-21T03:27:58;3.80;;;2.05;;
11490;SDS011;5802;52.832;4.758;2023-04-21T03:30:25;2.10;;;1.90;;
11490;SDS011;5802;52.832;4.758;2023-04-21T03:32:52;2.38;;;2.10;;
11490;SDS011;5802;52.832;4.758;2023-04-21T03:35:19;3.95;;;2.35;;
11490;SDS011;5802;52.832;4.758;2023-04-21T03:37:46;3.17;;;2.35;;
11490;SDS011;5802;52.832;4.758;2023-04-21T03:40:15;2.90;;;2.15;;
11490;SDS011;5802;52.832;4.758;2023-04-21T03:42:42;2.58;;;2.08;;
11490;SDS011;5802;52.832;4.758;2023-04-21T03:45:09;3.38;;;2.20;;
11490;SDS011;5802;52.832;4.758;2023-04-21T03:47:36;3.65;;;2.28;;
11490;SDS011;5802;52.832;4.758;2023-04-21T03:50:02;2.45;;;2.13;;
11490;SDS011;5802;52.832;4.758;2023-04-21T03:52:29;2.63;;;2.28;;
11490;SDS011;5802;52.832;4.758;2023-04-21T03:54:57;2.85;;;2.47;;
11490;SDS011;5802;52.832;4.758;2023-04-21T03:57:26;3.15;;;2.30;;
11490;SDS011;5802;52.832;4.758;2023-04-21T03:59:52;2.58;;;2.30;;
11490;SDS011;5802;52.832;4.758;2023-04-21T04:02:19;3.13;;;2.28;;
11490;SDS011;5802;52.832;4.758;2023-04-21T04:04:46;2.42;;;2.22;;
11490;SDS011;5802;52.832;4.758;2023-04-21T04:07:12;2.80;;;2.10;;
11490;SDS011;5802;52.832;4.758;2023-04-21T04:09:41;2.40;;;2.20;;
11490;SDS011;5802;52.832;4.758;2023-04-21T04:12:08;2.75;;;2.17;;
11490;SDS011;5802;52.832;4.758;2023-04-21T04:14:36;3.95;;;2.30;;
11490;SDS011;5802;52.832;4.758;2023-04-21T04:17:03;3.40;;;2.40;;
11490;SDS011;5802;52.832;4.758;2023-04-21T04:19:30;2.88;;;2.42;;
11490;SDS011;5802;52.832;4.758;2023-04-21T04:21:57;5.13;;;2.33;;
11490;SDS011;5802;52.832;4.758;2023-04-21T04:24:24;4.07;;;2.60;;
11490;SDS011;5802;52.832;4.758;2023-04-21T04:26:51;3.75;;;2.40;;
11490;SDS011;5802;52.832;4.758;2023-04-21T04:29:18;2.53;;;2.33;;
11490;SDS011;5802;52.832;4.758;2023-04-21T04:31:47;2.50;;;2.30;;
11490;SDS011;5802;52.832;4.758;2023-04-21T04:34:14;3.35;;;2.20;;
11490;SDS011;5802;52.832;4.758;2023-04-21T04:36:41;3.10;;;2.58;;
11490;SDS011;5802;52.832;4.758;2023-04-21T04:39:08;4.72;;;2.25;;
11490;SDS011;5802;52.832;4.758;2023-04-21T04:41:36;3.97;;;2.50;;
11490;SDS011;5802;52.832;4.758;2023-04-21T04:44:03;3.00;;;2.40;;
11490;SDS011;5802;52.832;4.758;2023-04-21T04:46:30;3.38;;;2.58;;
11490;SDS011;5802;52.832;4.758;2023-04-21T04:48:58;3.08;;;2.50;;
11490;SDS011;5802;52.832;4.758;2023-04-21T04:51:25;4.32;;;2.42;;
11490;SDS011;5802;52.832;4.758;2023-04-21T04:53:52;4.82;;;2.85;;
11490;SDS011;5802;52.832;4.758;2023-04-21T04:56:19;3.08;;;2.35;;
11490;SDS011;5802;52.832;4.758;2023-04-21T04:58:46;3.20;;;2.38;;
11490;SDS011;5802;52.832;4.758;2023-04-21T05:01:12;2.60;;;2.40;;
11490;SDS011;5802;52.832;4.758;2023-04-21T05:03:39;4.63;;;2.47;;
11490;SDS011;5802;52.832;4.758;2023-04-21T05:06:08;3.30;;;2.40;;
11490;SDS011;5802;52.832;4.758;2023-04-21T05:08:35;3.55;;;2.50;;
11490;SDS011;5802;52.832;4.758;2023-04-21T05:11:01;3.80;;;2.60;;
11490;SDS011;5802;52.832;4.758;2023-04-21T05:13:28;2.90;;;2.30;;
11490;SDS011;5802;52.832;4.758;2023-04-21T05:15:58;3.72;;;2.40;;
11490;SDS011;5802;52.832;4.758;2023-04-21T05:18:26;3.70;;;2.67;;
11490;SDS011;5802;52.832;4.758;2023-04-21T05:20:52;4.18;;;2.75;;
11490;SDS011;5802;52.832;4.758;2023-04-21T05:23:21;3.55;;;2.78;;
11490;SDS011;5802;52.832;4.758;2023-04-21T05:25:47;2.85;;;2.55;;
11490;SDS011;5802;52.832;4.758;2023-04-21T05:28:14;3.17;;;2.60;;
11490;SDS011;5802;52.832;4.758;2023-04-21T05:30:41;3.95;;;2.70;;
11490;SDS011;5802;52.832;4.758;2023-04-21T05:33:07;3.20;;;2.60;;
11490;SDS011;5802;52.832;4.758;2023-04-21T05:35:34;3.28;;;2.45;;
11490;SDS011;5802;52.832;4.758;2023-04-21T05:38:01;3.40;;;2.60;;
11490;SDS011;5802;52.832;4.758;2023-04-21T05:40:29;3.15;;;2.60;;
11490;SDS011;5802;52.832;4.758;2023-04-21T05:42:56;4.38;;;2.90;;
11490;SDS011;5802;52.832;4.758;2023-04-21T05:45:22;3.28;;;2.72;;
11490;SDS011;5802;52.832;4.758;2023-04-21T05:47:49;3.17;;;2.35;;
11490;SDS011;5802;52.832;4.758;2023-04-21T05:50:16;4.03;;;2.70;;
11490;SDS011;5802;52.832;4.758;2023-04-21T05:52:43;3.38;;;2.65;;
11490;SDS011;5802;52.832;4.758;2023-04-21T05:55:09;4.78;;;2.50;;
11490;SDS011;5802;52.832;4.758;2023-04-21T05:57:37;5.53;;;2.90;;
11490;SDS011;5802;52.832;4.758;2023-04-21T06:00:05;5.03;;;2.70;;
11490;SDS011;5802;52.832;4.758;2023-04-21T06:02:32;5.80;;;2.63;;
11490;SDS011;5802;52.832;4.758;2023-04-21T06:04:59;4.78;;;2.97;;
11490;SDS011;5802;52.832;4.758;2023-04-21T06:07:25;3.53;;;2.75;;
11490;SDS011;5802;52.832;4.758;2023-04-21T06:09:52;3.08;;;2.78;;
11490;SDS011;5802;52.832;4.758;2023-04-21T06:12:19;3.78;;;2.75;;
11490;SDS011;5802;52.832;4.758;2023-04-21T06:14:47;3.25;;;2.20;;
11490;SDS011;5802;52.832;4.758;2023-04-21T06:17:15;3.28;;;2.42;;
11490;SDS011;5802;52.832;4.758;2023-04-21T06:19:43;3.65;;;2.88;;
11490;SDS011;5802;52.832;4.758;2023-04-21T06:22:10;3.00;;;2.42;;
11490;SDS011;5802;52.832;4.758;2023-04-21T06:24:37;3.92;;;3.10;;
11490;SDS011;5802;52.832;4.758;2023-04-21T06:27:08;3.00;;;2.53;;
11490;SDS011;5802;52.832;4.758;2023-04-21T06:29:36;2.60;;;2.40;;
11490;SDS011;5802;52.832;4.758;2023-04-21T06:32:04;2.75;;;2.47;;
11490;SDS011;5802;52.832;4.758;2023-04-21T06:34:31;2.90;;;2.40;;
11490;SDS011;5802;52.832;4.758;2023-04-21T06:36:58;4.05;;;2.92;;
11490;SDS011;5802;52.832;4.758;2023-04-21T06:39:24;3.70;;;2.88;;
11490;SDS011;5802;52.832;4.758;2023-04-21T06:41:52;3.55;;;2.70;;
11490;SDS011;5802;52.832;4.758;2023-04-21T06:44:19;3.13;;;2.53;;
11490;SDS011;5802;52.832;4.758;2023-04-21T06:46:46;3.75;;;2.83;;
11490;SDS011;5802;52.832;4.758;2023-04-21T06:49:14;3.35;;;2.50;;
11490;SDS011;5802;52.832;4.758;2023-04-21T06:51:41;3.80;;;2.55;;
11490;SDS011;5802;52.832;4.758;2023-04-21T06:54:07;7.35;;;2.72;;
11490;SDS011;5802;52.832;4.758;2023-04-21T06:56:34;5.05;;;2.90;;
11490;SDS011;5802;52.832;4.758;2023-04-21T06:59:01;5.22;;;2.80;;
11490;SDS011;5802;52.832;4.758;2023-04-21T07:01:27;2.97;;;2.67;;
11490;SDS011;5802;52.832;4.758;2023-04-21T07:03:54;4.35;;;2.70;;
11490;SDS011;5802;52.832;4.758;2023-04-21T07:06:22;4.38;;;2.65;;
11490;SDS011;5802;52.832;4.758;2023-04-21T07:08:49;4.03;;;2.65;;
11490;SDS011;5802;52.832;4.758;2023-04-21T07:11:15;5.93;;;2.70;;
11490;SDS011;5802;52.832;4.758;2023-04-21T07:13:42;4.03;;;2.88;;
11490;SDS011;5802;52.832;4.758;2023-04-21T07:16:10;4.32;;;2.58;;
11490;SDS011;5802;52.832;4.758;2023-04-21T07:18:38;3.75;;;2.63;;
11490;SDS011;5802;52.832;4.758;2023-04-21T07:21:05;3.50;;;2.47;;
11490;SDS011;5802;52.832;4.758;2023-04-21T07:23:33;3.10;;;2.60;;
11490;SDS011;5802;52.832;4.758;2023-04-21T07:26:00;4.32;;;2.65;;
11490;SDS011;5802;52.832;4.758;2023-04-21T07:28:27;4.20;;;2.80;;
11490;SDS011;5802;52.832;4.758;2023-04-21T07:30:53;3.92;;;2.78;;
11490;SDS011;5802;52.832;4.758;2023-04-21T07:33:20;5.03;;;2.80;;
11490;SDS011;5802;52.832;4.758;2023-04-21T07:35:47;4.53;;;2.67;;
11490;SDS011;5802;52.832;4.758;2023-04-21T07:38:14;3.90;;;2.78;;
11490;SDS011;5802;52.832;4.758;2023-04-21T07:40:42;3.03;;;2.72;;
11490;SDS011;5802;52.832;4.758;2023-04-21T07:43:08;6.07;;;2.80;;
11490;SDS011;5802;52.832;4.758;2023-04-21T07:45:35;3.95;;;2.67;;
11490;SDS011;5802;52.832;4.758;2023-04-21T07:48:02;3.38;;;2.85;;
11490;SDS011;5802;52.832;4.758;2023-04-21T07:50:30;2.92;;;2.50;;
11490;SDS011;5802;52.832;4.758;2023-04-21T07:52:57;3.08;;;2.50;;
11490;SDS011;5802;52.832;4.758;2023-04-21T07:55:23;4.50;;;2.65;;
11490;SDS011;5802;52.832;4.758;2023-04-21T07:57:51;4.38;;;3.10;;
11490;SDS011;5802;52.832;4.758;2023-04-21T08:00:18;3.28;;;2.80;;
11490;SDS011;5802;52.832;4.758;2023-04-21T08:02:45;3.42;;;2.58;;
11490;SDS011;5802;52.832;4.758;2023-04-21T08:05:12;4.88;;;2.92;;
11490;SDS011;5802;52.832;4.758;2023-04-21T08:07:39;3.50;;;2.50;;
11490;SDS011;5802;52.832;4.758;2023-04-21T08:10:06;3.42;;;2.65;;
11490;SDS011;5802;52.832;4.758;2023-04-21T08:12:34;4.95;;;2.70;;
11490;SDS011;5802;52.832;4.758;2023-04-21T08:15:02;3.40;;;2.40;;
11490;SDS011;5802;52.832;4.758;2023-04-21T08:17:31;4.57;;;2.92;;
11490;SDS011;5802;52.832;4.758;2023-04-21T08:19:58;3.40;;;2.60;;
11490;SDS011;5802;52.832;4.758;2023-04-21T08:22:25;4.65;;;2.65;;
11490;SDS011;5802;52.832;4.758;2023-04-21T08:24:51;3.85;;;2.70;;
11490;SDS011;5802;52.832;4.758;2023-04-21T08:27:18;3.55;;;2.85;;
11490;SDS011;5802;52.832;4.758;2023-04-21T08:29:45;4.22;;;2.88;;
11490;SDS011;5802;52.832;4.758;2023-04-21T08:32:13;4.22;;;2.83;;
11490;SDS011;5802;52.832;4.758;2023-04-21T08:34:40;3.65;;;2.72;;
11490;SDS011;5802;52.832;4.758;2023-04-21T08:37:06;3.50;;;2.90;;
11490;SDS011;5802;52.832;4.758;2023-04-21T08:39:33;4.25;;;3.10;;
11490;SDS011;5802;52.832;4.758;2023-04-21T08:42:00;4.32;;;2.58;;
11490;SDS011;5802;52.832;4.758;2023-04-21T08:44:27;3.17;;;2.42;;
11490;SDS011;5802;52.832;4.758;2023-04-21T08:46:54;3.97;;;3.00;;
11490;SDS011;5802;52.832;4.758;2023-04-21T08:49:24;5.30;;;3.08;;
11490;SDS011;5802;52.832;4.758;2023-04-21T08:51:55;3.97;;;2.85;;
11490;SDS011;5802;52.832;4.758;2023-04-21T08:54:22;3.30;;;2.67;;
11490;SDS011;5802;52.832;4.758;2023-04-21T08:56:48;3.53;;;2.53;;
11490;SDS011;5802;52.832;4.758;2023-04-21T08:59:15;3.40;;;2.65;;
11490;SDS011;5802;52.832;4.758;2023-04-21T09:04:38;4.65;;;2.50;;
11490;SDS011;5802;52.832;4.758;2023-04-21T09:07:04;7.22;;;3.20;;
11490;SDS011;5802;52.832;4.758;2023-04-21T09:09:32;7.55;;;4.32;;
11490;SDS011;5802;52.832;4.758;2023-04-21T09:11:59;11.27;;;5.97;;
11490;SDS011;5802;52.832;4.758;2023-04-21T09:14:32;29.15;;;9.23;;
11490;SDS011;5802;52.832;4.758;2023-04-21T09:17:00;26.42;;;10.05;;
11490;SDS011;5802;52.832;4.758;2023-04-21T09:19:27;34.10;;;12.30;;
11490;SDS011;5802;52.832;4.758;2023-04-21T09:21:56;27.88;;;11.48;;
11490;SDS011;5802;52.832;4.758;2023-04-21T09:24:22;26.40;;;12.30;;
11490;SDS011;5802;52.832;4.758;2023-04-21T09:26:49;26.42;;;11.57;;
11490;SDS011;5802;52.832;4.758;2023-04-21T09:29:17;26.33;;;11.85;;
11490;SDS011;5802;52.832;4.758;2023-04-21T09:31:45;23.80;;;10.85;;
11490;SDS011;5802;52.832;4.758;2023-04-21T09:34:17;28.45;;;10.45;;
11490;SDS011;5802;52.832;4.758;2023-04-21T09:36:44;19.20;;;9.20;;
11490;SDS011;5802;52.832;4.758;2023-04-21T09:39:13;17.73;;;9.38;;
11490;SDS011;5802;52.832;4.758;2023-04-21T09:41:40;21.15;;;8.32;;
11490;SDS011;5802;52.832;4.758;2023-04-21T09:44:08;16.40;;;7.82;;
11490;SDS011;5802;52.832;4.758;2023-04-21T09:46:35;17.83;;;7.88;;
11490;SDS011;5802;52.832;4.758;2023-04-21T09:49:02;9.20;;;7.00;;
11490;SDS011;5802;52.832;4.758;2023-04-21T09:51:29;16.42;;;7.20;;
11490;SDS011;5802;52.832;4.758;2023-04-21T09:53:57;14.30;;;6.70;;
11490;SDS011;5802;52.832;4.758;2023-04-21T09:56:27;11.43;;;6.97;;
11490;SDS011;5802;52.832;4.758;2023-04-21T09:58:56;14.70;;;6.80;;
11490;SDS011;5802;52.832;4.758;2023-04-21T10:01:26;10.15;;;6.35;;
11490;SDS011;5802;52.832;4.758;2023-04-21T10:03:54;11.68;;;6.38;;
11490;SDS011;5802;52.832;4.758;2023-04-21T10:06:23;14.35;;;6.53;;
11490;SDS011;5802;52.832;4.758;2023-04-21T10:08:50;11.93;;;5.82;;
11490;SDS011;5802;52.832;4.758;2023-04-21T10:11:20;13.35;;;5.78;;
11490;SDS011;5802;52.832;4.758;2023-04-21T10:13:49;19.02;;;6.53;;
11490;SDS011;5802;52.832;4.758;2023-04-21T10:16:16;10.23;;;5.68;;
11490;SDS011;5802;52.832;4.758;2023-04-21T10:18:45;11.52;;;5.93;;
11490;SDS011;5802;52.832;4.758;2023-04-21T10:21:15;10.05;;;5.22;;
11490;SDS011;5802;52.832;4.758;2023-04-21T10:23:46;9.35;;;5.15;;
11490;SDS011;5802;52.832;4.758;2023-04-21T10:26:15;7.38;;;5.18;;
11490;SDS011;5802;52.832;4.758;2023-04-21T10:28:45;9.60;;;5.07;;
11490;SDS011;5802;52.832;4.758;2023-04-21T10:31:22;11.32;;;5.75;;
11490;SDS011;5802;52.832;4.758;2023-04-21T10:36:41;6.50;;;4.80;;
11490;SDS011;5802;52.832;4.758;2023-04-21T10:39:24;13.15;;;5.93;;
11490;SDS011;5802;52.832;4.758;2023-04-21T10:41:52;8.52;;;4.88;;
11490;SDS011;5802;52.832;4.758;2023-04-21T10:44:20;7.72;;;4.95;;
11490;SDS011;5802;52.832;4.758;2023-04-21T10:46:50;11.65;;;5.13;;
11490;SDS011;5802;52.832;4.758;2023-04-21T10:49:20;7.00;;;4.35;;
11490;SDS011;5802;52.832;4.758;2023-04-21T10:52:06;10.30;;;5.13;;
11490;SDS011;5802;52.832;4.758;2023-04-21T10:54:38;11.35;;;4.78;;
11490;SDS011;5802;52.832;4.758;2023-04-21T10:57:09;8.30;;;4.82;;
11490;SDS011;5802;52.832;4.758;2023-04-21T10:59:37;12.48;;;4.97;;
11490;SDS011;5802;52.832;4.758;2023-04-21T11:02:05;9.98;;;5.00;;
11490;SDS011;5802;52.832;4.758;2023-04-21T11:04:33;7.22;;;4.72;;
11490;SDS011;5802;52.832;4.758;2023-04-21T11:07:06;9.07;;;4.95;;
11490;SDS011;5802;52.832;4.758;2023-04-21T11:09:33;9.70;;;5.05;;
11490;SDS011;5802;52.832;4.758;2023-04-21T11:12:02;7.65;;;4.40;;
11490;SDS011;5802;52.832;4.758;2023-04-21T11:14:31;11.63;;;4.70;;
11490;SDS011;5802;52.832;4.758;2023-04-21T11:17:00;5.97;;;4.05;;
11490;SDS011;5802;52.832;4.758;2023-04-21T11:19:28;12.63;;;4.80;;
11490;SDS011;5802;52.832;4.758;2023-04-21T11:21:57;6.38;;;4.50;;
11490;SDS011;5802;52.832;4.758;2023-04-21T11:24:23;7.75;;;3.92;;
11490;SDS011;5802;52.832;4.758;2023-04-21T11:26:50;7.20;;;4.50;;
11490;SDS011;5802;52.832;4.758;2023-04-21T11:29:17;7.43;;;4.60;;
11490;SDS011;5802;52.832;4.758;2023-04-21T11:31:44;6.53;;;4.32;;
11490;SDS011;5802;52.832;4.758;2023-04-21T11:34:13;7.28;;;3.85;;
11490;SDS011;5802;52.832;4.758;2023-04-21T11:36:42;7.40;;;4.38;;
11490;SDS011;5802;52.832;4.758;2023-04-21T11:39:10;6.20;;;3.80;;
11490;SDS011;5802;52.832;4.758;2023-04-21T11:41:40;5.43;;;3.95;;
11490;SDS011;5802;52.832;4.758;2023-04-21T11:44:08;5.82;;;4.10;;
11490;SDS011;5802;52.832;4.758;2023-04-21T11:46:36;6.13;;;3.78;;
11490;SDS011;5802;52.832;4.758;2023-04-21T11:49:03;6.40;;;4.18;;
11490;SDS011;5802;52.832;4.758;2023-04-21T11:51:32;7.05;;;3.95;;
11490;SDS011;5802;52.832;4.758;2023-04-21T11:54:01;5.97;;;4.60;;
11490;SDS011;5802;52.832;4.758;2023-04-21T11:56:32;5.68;;;4.13;;
11490;SDS011;5802;52.832;4.758;2023-04-21T11:59:04;5.80;;;3.95;;
11490;SDS011;5802;52.832;4.758;2023-04-21T12:01:32;10.68;;;3.90;;
11490;SDS011;5802;52.832;4.758;2023-04-21T12:04:02;4.93;;;3.70;;
11490;SDS011;5802;52.832;4.758;2023-04-21T12:06:28;6.35;;;3.90;;
11490;SDS011;5802;52.832;4.758;2023-04-21T12:08:58;6.05;;;3.90;;
11490;SDS011;5802;52.832;4.758;2023-04-21T12:11:27;6.75;;;3.70;;
11490;SDS011;5802;52.832;4.758;2023-04-21T12:13:55;5.13;;;3.88;;
11490;SDS011;5802;52.832;4.758;2023-04-21T12:16:23;4.47;;;3.55;;
11490;SDS011;5802;52.832;4.758;2023-04-21T12:18:52;9.07;;;3.97;;
11490;SDS011;5802;52.832;4.758;2023-04-21T12:21:19;5.60;;;4.30;;
11490;SDS011;5802;52.832;4.758;2023-04-21T12:23:45;7.47;;;4.00;;
11490;SDS011;5802;52.832;4.758;2023-04-21T12:26:13;5.97;;;4.20;;
11490;SDS011;5802;52.832;4.758;2023-04-21T12:28:40;8.65;;;4.28;;
11490;SDS011;5802;52.832;4.758;2023-04-21T12:31:07;4.65;;;4.10;;
11490;SDS011;5802;52.832;4.758;2023-04-21T12:33:33;5.22;;;4.10;;
11490;SDS011;5802;52.832;4.758;2023-04-21T12:36:00;5.80;;;4.10;;
11490;SDS011;5802;52.832;4.758;2023-04-21T12:38:27;5.05;;;3.40;;
11490;SDS011;5802;52.832;4.758;2023-04-21T12:40:54;5.65;;;4.22;;
11490;SDS011;5802;52.832;4.758;2023-04-21T12:43:22;5.70;;;3.92;;
11490;SDS011;5802;52.832;4.758;2023-04-21T12:45:48;4.28;;;3.58;;
11490;SDS011;5802;52.832;4.758;2023-04-21T12:48:16;6.15;;;4.00;;
11490;SDS011;5802;52.832;4.758;2023-04-21T12:50:43;6.72;;;3.60;;
11490;SDS011;5802;52.832;4.758;2023-04-21T12:53:10;5.18;;;4.25;;
11490;SDS011;5802;52.832;4.758;2023-04-21T12:55:37;6.60;;;3.58;;
11490;SDS011;5802;52.832;4.758;2023-04-21T12:58:04;5.15;;;3.63;;
11490;SDS011;5802;52.832;4.758;2023-04-21T13:00:32;5.22;;;3.50;;
11490;SDS011;5802;52.832;4.758;2023-04-21T13:02:59;7.20;;;3.78;;
11490;SDS011;5802;52.832;4.758;2023-04-21T13:05:26;5.45;;;3.53;;
11490;SDS011;5802;52.832;4.758;2023-04-21T13:07:53;5.90;;;3.60;;
11490;SDS011;5802;52.832;4.758;2023-04-21T13:10:20;3.95;;;3.55;;
11490;SDS011;5802;52.832;4.758;2023-04-21T13:12:46;4.55;;;3.78;;
11490;SDS011;5802;52.832;4.758;2023-04-21T13:15:13;5.43;;;3.97;;
11490;SDS011;5802;52.832;4.758;2023-04-21T13:17:41;4.80;;;3.38;;
11490;SDS011;5802;52.832;4.758;2023-04-21T13:20:08;5.13;;;3.40;;
11490;SDS011;5802;52.832;4.758;2023-04-21T13:22:36;3.97;;;3.50;;
11490;SDS011;5802;52.832;4.758;2023-04-21T13:25:03;4.72;;;4.10;;
11490;SDS011;5802;52.832;4.758;2023-04-21T13:27:30;4.28;;;3.40;;
11490;SDS011;5802;52.832;4.758;2023-04-21T13:29:57;7.10;;;3.80;;
11490;SDS011;5802;52.832;4.758;2023-04-21T13:32:24;3.83;;;3.38;;
11490;SDS011;5802;52.832;4.758;2023-04-21T13:34:52;4.13;;;3.72;;
11490;SDS011;5802;52.832;4.758;2023-04-21T13:37:18;3.50;;;3.20;;
11490;SDS011;5802;52.832;4.758;2023-04-21T13:39:45;6.53;;;3.53;;
11490;SDS011;5802;52.832;4.758;2023-04-21T13:42:12;4.40;;;3.33;;
11490;SDS011;5802;52.832;4.758;2023-04-21T13:44:38;4.88;;;3.50;;
11490;SDS011;5802;52.832;4.758;2023-04-21T13:47:05;4.90;;;3.55;;
11490;SDS011;5802;52.832;4.758;2023-04-21T13:49:33;4.35;;;3.60;;
11490;SDS011;5802;52.832;4.758;2023-04-21T13:52:01;4.90;;;3.45;;
11490;SDS011;5802;52.832;4.758;2023-04-21T13:54:27;4.45;;;3.47;;
11490;SDS011;5802;52.832;4.758;2023-04-21T13:56:54;4.85;;;3.50;;
11490;SDS011;5802;52.832;4.758;2023-04-21T13:59:21;4.07;;;3.10;;
11490;SDS011;5802;52.832;4.758;2023-04-21T14:01:48;4.18;;;3.28;;
11490;SDS011;5802;52.832;4.758;2023-04-21T14:04:14;4.05;;;3.38;;
11490;SDS011;5802;52.832;4.758;2023-04-21T14:06:41;3.95;;;3.28;;
11490;SDS011;5802;52.832;4.758;2023-04-21T14:09:09;3.78;;;3.40;;
11490;SDS011;5802;52.832;4.758;2023-04-21T14:11:36;5.32;;;3.83;;
11490;SDS011;5802;52.832;4.758;2023-04-21T14:14:03;5.72;;;3.88;;
11490;SDS011;5802;52.832;4.758;2023-04-21T14:16:29;4.68;;;3.78;;
11490;SDS011;5802;52.832;4.758;2023-04-21T14:18:56;4.88;;;3.42;;
11490;SDS011;5802;52.832;4.758;2023-04-21T14:21:23;6.13;;;4.15;;
11490;SDS011;5802;52.832;4.758;2023-04-21T14:23:49;4.88;;;3.70;;
11490;SDS011;5802;52.832;4.758;2023-04-21T14:26:18;5.07;;;3.33;;
11490;SDS011;5802;52.832;4.758;2023-04-21T14:28:45;6.57;;;3.60;;
11490;SDS011;5802;52.832;4.758;2023-04-21T14:31:11;4.38;;;3.90;;
11490;SDS011;5802;52.832;4.758;2023-04-21T14:33:38;5.45;;;3.90;;
11490;SDS011;5802;52.832;4.758;2023-04-21T14:36:05;5.05;;;3.58;;
11490;SDS011;5802;52.832;4.758;2023-04-21T14:38:32;7.50;;;3.80;;
11490;SDS011;5802;52.832;4.758;2023-04-21T14:40:59;5.97;;;3.80;;
11490;SDS011;5802;52.832;4.758;2023-04-21T14:43:27;5.28;;;3.72;;
11490;SDS011;5802;52.832;4.758;2023-04-21T14:45:54;4.90;;;3.60;;
11490;SDS011;5802;52.832;4.758;2023-04-21T14:48:21;5.43;;;3.85;;
11490;SDS011;5802;52.832;4.758;2023-04-21T14:50:48;4.00;;;3.30;;
11490;SDS011;5802;52.832;4.758;2023-04-21T14:53:14;4.78;;;3.75;;
11490;SDS011;5802;52.832;4.758;2023-04-21T14:55:41;6.30;;;3.85;;
11490;SDS011;5802;52.832;4.758;2023-04-21T14:58:08;8.15;;;3.90;;
11490;SDS011;5802;52.832;4.758;2023-04-21T15:00:37;4.32;;;3.70;;
11490;SDS011;5802;52.832;4.758;2023-04-21T15:03:04;6.85;;;3.70;;
11490;SDS011;5802;52.832;4.758;2023-04-21T15:05:30;4.80;;;3.22;;
11490;SDS011;5802;52.832;4.758;2023-04-21T15:07:58;7.13;;;3.75;;